createdAt,value
2022-08-07T00:00:23.930Z,11.32
2022-08-07T00:02:51.057Z,11.30
2022-08-07T00:05:20.049Z,11.27
2022-08-07T00:07:47.037Z,11.31
2022-08-07T00:10:25.859Z,11.26
2022-08-07T00:12:59.973Z,11.25
2022-08-07T00:15:38.423Z,11.24
2022-08-07T00:18:19.173Z,11.24
2022-08-07T00:20:49.473Z,11.20
2022-08-07T00:23:17.225Z,11.15
2022-08-07T00:25:45.771Z,11.11
2022-08-07T00:28:18.617Z,11.11
2022-08-07T00:30:48.473Z,11.06
2022-08-07T00:33:15.744Z,11.05
2022-08-07T00:35:45.382Z,11.08
2022-08-07T00:38:14.138Z,11.06
2022-08-07T00:40:41.956Z,11.04
2022-08-07T00:44:00.579Z,11.00
2022-08-07T00:46:00.266Z,10.97
2022-08-07T00:48:31.751Z,10.95
2022-08-07T00:51:00.399Z,10.95
2022-08-07T00:53:27.313Z,10.93
2022-08-07T00:56:13.818Z,10.91
2022-08-07T00:58:46.907Z,10.90
2022-08-07T01:01:14.623Z,10.89
2022-08-07T01:03:56.314Z,10.88
2022-08-07T01:06:30.189Z,10.83
2022-08-07T01:09:00.634Z,10.84
2022-08-07T01:12:09.387Z,10.83
2022-08-07T01:14:28.714Z,10.83
2022-08-07T01:16:56.084Z,10.80
2022-08-07T01:19:22.984Z,10.78
2022-08-07T01:21:53.053Z,10.74
2022-08-07T01:24:21.626Z,10.72
2022-08-07T01:26:51.937Z,10.69
2022-08-07T01:29:19.781Z,10.64
2022-08-07T01:31:46.301Z,10.64
2022-08-07T01:34:17.830Z,10.59
2022-08-07T01:36:52.717Z,10.50
2022-08-07T01:39:39.616Z,10.51
2022-08-07T01:42:39.718Z,10.48
2022-08-07T01:45:04.918Z,10.43
2022-08-07T01:48:18.365Z,10.45
2022-08-07T01:50:28.929Z,10.44
2022-08-07T01:52:58.395Z,10.44
2022-08-07T01:55:37.601Z,10.45
2022-08-07T01:58:29.303Z,10.38
2022-08-07T02:01:09.713Z,10.40
2022-08-07T02:03:48.805Z,10.39
2022-08-07T02:06:31.666Z,10.34
2022-08-07T02:09:01.653Z,10.28
2022-08-07T02:12:03.268Z,10.23
2022-08-07T02:14:36.366Z,10.18
2022-08-07T02:17:08.494Z,10.13
2022-08-07T02:20:04.181Z,10.17
2022-08-07T02:22:25.780Z,10.16
2022-08-07T02:24:54.636Z,10.13
2022-08-07T02:27:23.252Z,10.11
2022-08-07T02:29:54.355Z,10.06
2022-08-07T02:32:23.495Z,10.04
2022-08-07T02:34:54.510Z,10.00
2022-08-07T02:37:23.328Z,10.00
2022-08-07T02:40:02.256Z,10.00
2022-08-07T02:42:38.625Z,9.99
2022-08-07T02:45:55.899Z,9.97
2022-08-07T02:47:54.706Z,9.93
2022-08-07T02:50:26.277Z,9.90
2022-08-07T02:53:06.352Z,9.92
2022-08-07T02:56:02.451Z,9.92
2022-08-07T02:58:27.344Z,9.88
2022-08-07T03:00:57.314Z,9.84
2022-08-07T03:03:42.158Z,9.83
2022-08-07T03:06:16.314Z,9.84
2022-08-07T03:08:43.686Z,9.83
2022-08-07T03:11:11.035Z,9.81
2022-08-07T03:13:38.690Z,9.78
2022-08-07T03:16:06.106Z,9.82
2022-08-07T03:18:34.797Z,9.80
2022-08-07T03:21:08.480Z,9.78
2022-08-07T03:24:19.660Z,9.79
2022-08-07T03:26:28.219Z,9.81
2022-08-07T03:28:56.842Z,9.80
2022-08-07T03:31:42.258Z,9.78
2022-08-07T03:34:18.493Z,9.71
2022-08-07T03:36:50.562Z,9.65
2022-08-07T03:39:42.038Z,9.63
2022-08-07T03:42:06.922Z,9.60
2022-08-07T03:44:35.955Z,9.59
2022-08-07T03:47:13.893Z,9.56
2022-08-07T03:49:42.395Z,9.52
2022-08-07T03:52:22.517Z,9.46
2022-08-07T03:54:55.140Z,9.45
2022-08-07T03:58:32.542Z,9.46
2022-08-07T04:00:14.322Z,9.44
2022-08-07T04:02:47.481Z,9.46
2022-08-07T04:05:15.827Z,9.51
2022-08-07T04:07:47.624Z,9.44
2022-08-07T04:10:15.674Z,9.44
2022-08-07T04:12:47.933Z,9.44
2022-08-07T04:15:15.825Z,9.45
2022-08-07T04:18:58.353Z,9.42
2022-08-07T04:20:31.261Z,9.42
2022-08-07T04:23:02.205Z,9.42
2022-08-07T04:25:39.222Z,9.40
2022-08-07T04:28:13.391Z,9.42
2022-08-07T04:30:55.491Z,9.45
2022-08-07T04:33:25.192Z,9.54
2022-08-07T04:35:53.935Z,9.56
2022-08-07T04:38:21.911Z,9.60
2022-08-07T04:40:51.875Z,9.60
2022-08-07T04:44:13.170Z,9.61
2022-08-07T04:46:29.486Z,9.68
2022-08-07T04:49:18.053Z,9.73
2022-08-07T04:52:00.143Z,9.79
2022-08-07T04:55:15.463Z,9.85
2022-08-07T04:58:12.544Z,9.97
2022-08-07T05:01:20.384Z,10.09
2022-08-07T05:04:19.094Z,10.20
2022-08-07T05:07:19.666Z,10.30
2022-08-07T05:09:49.769Z,10.34
2022-08-07T05:12:26.786Z,10.39
2022-08-07T05:15:15.972Z,10.56
2022-08-07T05:18:16.351Z,10.72
2022-08-07T05:20:49.243Z,10.86
2022-08-07T05:23:29.022Z,11.02
2022-08-07T05:26:11.701Z,11.10
2022-08-07T05:28:48.730Z,11.17
2022-08-07T05:31:20.012Z,11.34
2022-08-07T05:33:51.381Z,11.49
2022-08-07T05:36:35.306Z,11.72
2022-08-07T05:39:08.943Z,11.85
2022-08-07T05:42:01.446Z,12.04
2022-08-07T05:44:33.428Z,12.33
2022-08-07T05:47:01.394Z,12.63
2022-08-07T05:49:40.526Z,12.93
2022-08-07T05:52:08.685Z,13.24
2022-08-07T05:54:44.459Z,13.58
2022-08-07T05:57:21.019Z,13.89
2022-08-07T05:59:57.971Z,14.12
2022-08-07T06:02:29.598Z,14.37
2022-08-07T06:05:03.382Z,14.58
2022-08-07T06:08:09.183Z,14.83
2022-08-07T06:10:18.240Z,15.08
2022-08-07T06:12:45.536Z,15.41
2022-08-07T06:15:16.235Z,15.66
2022-08-07T06:17:53.684Z,15.81
2022-08-07T06:20:32.088Z,16.17
2022-08-07T06:23:45.781Z,16.42
2022-08-07T06:25:58.707Z,16.61
2022-08-07T06:28:27.493Z,17.02
2022-08-07T06:30:55.655Z,16.96
2022-08-07T06:33:22.921Z,17.03
2022-08-07T06:36:06.900Z,17.24
2022-08-07T06:38:36.331Z,17.26
2022-08-07T06:41:09.814Z,17.73
2022-08-07T06:43:46.558Z,17.77
2022-08-07T06:46:31.384Z,17.56
2022-08-07T06:49:04.370Z,17.80
2022-08-07T06:51:34.715Z,17.80
2022-08-07T06:55:29.987Z,17.78
2022-08-07T06:56:51.006Z,18.31
2022-08-07T07:00:11.855Z,18.32
2022-08-07T07:02:48.567Z,18.61
2022-08-07T07:05:03.468Z,18.69
2022-08-07T07:07:58.399Z,18.80
2022-08-07T07:10:26.937Z,18.84
2022-08-07T07:12:59.820Z,18.96
2022-08-07T07:15:36.021Z,19.18
2022-08-07T07:18:08.608Z,19.01
2022-08-07T07:20:45.750Z,18.54
2022-08-07T07:24:09.624Z,18.51
2022-08-07T07:26:33.920Z,18.40
2022-08-07T07:29:56.108Z,18.37
2022-08-07T07:31:47.053Z,18.69
2022-08-07T07:34:18.109Z,19.35
2022-08-07T07:36:47.927Z,19.80
2022-08-07T07:39:22.631Z,19.69
2022-08-07T07:42:08.838Z,19.79
2022-08-07T07:44:43.452Z,19.90
2022-08-07T07:47:15.970Z,19.63
2022-08-07T07:50:35.829Z,19.90
2022-08-07T07:52:39.556Z,20.31
2022-08-07T07:55:09.066Z,20.77
2022-08-07T07:57:52.586Z,20.77
2022-08-07T08:00:29.468Z,20.56
2022-08-07T08:03:16.737Z,20.50
2022-08-07T08:05:57.206Z,19.82
2022-08-07T08:08:35.088Z,20.15
2022-08-07T08:11:09.331Z,20.04
2022-08-07T08:13:53.352Z,20.34
2022-08-07T08:16:29.997Z,20.29
2022-08-07T08:19:00.537Z,19.96
2022-08-07T08:22:06.008Z,20.52
2022-08-07T08:25:18.342Z,20.92
2022-08-07T08:27:57.114Z,21.38
2022-08-07T08:30:29.563Z,22.80
2022-08-07T08:33:02.961Z,23.08
2022-08-07T08:35:39.099Z,22.89
2022-08-07T08:38:16.766Z,23.60
2022-08-07T08:40:49.614Z,23.99
2022-08-07T08:43:42.688Z,23.37
2022-08-07T08:46:28.880Z,23.56
2022-08-07T08:49:09.775Z,23.19
2022-08-07T08:52:01.163Z,22.99
2022-08-07T08:54:41.441Z,22.99
2022-08-07T08:57:21.426Z,23.03
2022-08-07T09:00:01.714Z,22.94
2022-08-07T09:02:41.811Z,22.64
2022-08-07T09:05:40.757Z,21.68
2022-08-07T09:08:28.447Z,21.76
2022-08-07T09:11:10.707Z,21.32
2022-08-07T09:14:14.013Z,20.88
2022-08-07T09:16:47.523Z,21.11
2022-08-07T09:19:51.798Z,21.48
2022-08-07T09:24:34.481Z,21.87
2022-08-07T09:25:56.321Z,20.97
2022-08-07T09:30:00.792Z,20.96
2022-08-07T09:31:57.675Z,20.93
2022-08-07T09:34:53.846Z,20.69
2022-08-07T09:37:48.275Z,20.75
2022-08-07T09:40:40.380Z,21.21
2022-08-07T09:44:03.434Z,21.15
2022-08-07T09:47:51.887Z,21.06
2022-08-07T09:50:02.195Z,21.29
2022-08-07T09:52:51.781Z,21.03
2022-08-07T09:55:29.632Z,20.86
2022-08-07T09:58:33.538Z,21.08
2022-08-07T10:01:51.575Z,20.93
2022-08-07T10:04:33.839Z,21.03
2022-08-07T10:07:39.779Z,21.22
2022-08-07T10:10:43.645Z,21.64
2022-08-07T10:14:00.458Z,21.50
2022-08-07T10:16:36.058Z,21.60
2022-08-07T10:19:11.639Z,21.76
2022-08-07T10:22:15.404Z,21.37
2022-08-07T10:25:01.680Z,21.00
2022-08-07T10:27:30.149Z,20.84
2022-08-07T10:30:43.052Z,20.90
2022-08-07T10:34:05.600Z,21.18
2022-08-07T10:37:03.940Z,21.54
2022-08-07T10:40:06.153Z,22.07
2022-08-07T10:42:46.709Z,22.29
2022-08-07T10:45:48.060Z,22.20
2022-08-07T10:48:35.030Z,22.04
2022-08-07T10:51:04.907Z,21.78
2022-08-07T10:53:58.480Z,21.80
2022-08-07T10:57:04.657Z,22.13
2022-08-07T10:59:50.905Z,21.97
2022-08-07T11:02:34.082Z,21.83
2022-08-07T11:05:35.731Z,21.66
2022-08-07T11:08:43.579Z,21.55
2022-08-07T11:11:16.744Z,21.54
2022-08-07T11:14:45.310Z,21.61
2022-08-07T11:17:01.936Z,21.84
2022-08-07T11:19:55.785Z,22.13
2022-08-07T11:22:36.046Z,21.86
2022-08-07T11:25:18.441Z,22.01
2022-08-07T11:28:01.509Z,22.05
2022-08-07T11:30:42.288Z,21.99
2022-08-07T11:33:53.613Z,22.35
2022-08-07T11:36:30.810Z,22.72
2022-08-07T11:39:00.623Z,22.77
2022-08-07T11:42:01.596Z,22.70
2022-08-07T11:44:36.245Z,22.45
2022-08-07T11:47:22.855Z,22.57
2022-08-07T11:50:34.896Z,22.73
2022-08-07T11:53:43.258Z,23.06
2022-08-07T11:56:53.053Z,23.28
2022-08-07T12:00:12.504Z,22.96
2022-08-07T12:02:32.361Z,22.95
2022-08-07T12:05:09.091Z,23.02
2022-08-07T12:07:53.512Z,23.18
2022-08-07T12:10:42.443Z,23.16
2022-08-07T12:13:35.680Z,23.28
2022-08-07T12:16:09.177Z,23.00
2022-08-07T12:19:14.759Z,23.64
2022-08-07T12:22:36.191Z,23.58
2022-08-07T12:25:08.031Z,23.37
2022-08-07T12:28:09.794Z,23.32
2022-08-07T12:30:32.744Z,23.56
2022-08-07T12:33:23.229Z,23.83
2022-08-07T12:35:57.959Z,23.67
2022-08-07T12:38:38.477Z,23.56
2022-08-07T12:41:11.409Z,23.87
2022-08-07T12:44:04.498Z,24.23
2022-08-07T12:46:32.749Z,24.13
2022-08-07T12:49:44.671Z,24.49
2022-08-07T12:52:28.944Z,24.43
2022-08-07T12:55:16.454Z,24.53
2022-08-07T12:58:02.041Z,24.63
2022-08-07T13:00:49.766Z,24.60
2022-08-07T13:03:59.364Z,24.85
2022-08-07T13:07:05.110Z,25.11
2022-08-07T13:10:19.844Z,25.32
2022-08-07T13:13:11.830Z,25.03
2022-08-07T13:16:07.448Z,25.02
2022-08-07T13:18:53.622Z,25.32
2022-08-07T13:21:50.504Z,25.22
2022-08-07T13:24:30.702Z,25.45
2022-08-07T13:27:20.702Z,25.21
2022-08-07T13:29:58.354Z,25.14
2022-08-07T13:32:43.461Z,24.94
2022-08-07T13:35:25.563Z,25.00
2022-08-07T13:38:39.145Z,24.94
2022-08-07T13:41:35.538Z,25.23
2022-08-07T13:44:10.330Z,25.54
2022-08-07T13:46:49.322Z,25.94
2022-08-07T13:50:33.065Z,26.87
2022-08-07T13:52:30.535Z,26.90
2022-08-07T13:54:56.111Z,26.98
2022-08-07T13:57:37.632Z,26.54
2022-08-07T14:00:07.659Z,26.49
2022-08-07T14:02:45.719Z,27.10
2022-08-07T14:05:23.183Z,26.21
2022-08-07T14:08:00.611Z,26.14
2022-08-07T14:10:34.896Z,26.65
2022-08-07T14:13:14.147Z,27.53
2022-08-07T14:15:50.477Z,27.84
2022-08-07T14:18:28.551Z,26.79
2022-08-07T14:21:08.389Z,27.23
2022-08-07T14:24:00.776Z,27.50
2022-08-07T14:26:50.756Z,28.77
2022-08-07T14:30:04.797Z,29.01
2022-08-07T14:32:12.463Z,29.35
2022-08-07T14:34:48.052Z,29.36
2022-08-07T14:37:23.735Z,28.89
2022-08-07T14:40:17.120Z,28.82
2022-08-07T14:43:58.259Z,28.39
2022-08-07T14:46:02.956Z,28.42
2022-08-07T14:48:34.002Z,28.55
2022-08-07T14:51:16.038Z,26.84
2022-08-07T14:54:05.739Z,27.37
2022-08-07T14:56:33.415Z,26.18
2022-08-07T14:59:13.861Z,26.43
2022-08-07T15:01:58.755Z,27.67
2022-08-07T15:04:25.937Z,27.35
2022-08-07T15:06:56.971Z,27.28
2022-08-07T15:12:25.630Z,26.04
2022-08-07T15:15:17.370Z,26.13
2022-08-07T15:17:56.280Z,23.35
2022-08-07T15:23:22.461Z,28.02
2022-08-07T15:26:10.234Z,28.03
2022-08-07T15:28:56.609Z,27.36
2022-08-07T15:32:00.910Z,27.20
2022-08-07T15:34:14.965Z,25.70
2022-08-07T15:37:03.875Z,28.18
2022-08-07T15:39:56.899Z,28.89
2022-08-07T15:42:51.787Z,28.42
2022-08-07T15:45:58.175Z,29.62
2022-08-07T15:48:29.795Z,29.07
2022-08-07T15:51:01.248Z,29.17
2022-08-07T15:53:52.333Z,28.92
2022-08-07T15:56:24.567Z,28.87
2022-08-07T15:58:53.728Z,29.59
2022-08-07T16:01:38.505Z,29.85
2022-08-07T16:04:15.365Z,29.88
2022-08-07T16:06:52.477Z,29.15
2022-08-07T16:09:41.076Z,29.85
2022-08-07T16:12:38.048Z,29.36
2022-08-07T16:15:54.921Z,29.37
2022-08-07T16:18:54.346Z,29.26
2022-08-07T16:21:44.181Z,30.24
2022-08-07T16:24:38.423Z,29.18
2022-08-07T16:27:40.271Z,29.86
2022-08-07T16:30:30.885Z,30.18
2022-08-07T16:34:02.800Z,30.01
2022-08-07T16:36:31.373Z,28.09
2022-08-07T16:39:40.721Z,27.92
2022-08-07T16:42:36.606Z,28.51
2022-08-07T16:46:34.588Z,28.99
2022-08-07T16:49:04.395Z,29.86
2022-08-07T16:51:52.078Z,30.34
2022-08-07T16:54:54.968Z,29.45
2022-08-07T16:58:17.207Z,29.41
2022-08-07T17:01:15.642Z,29.77
2022-08-07T17:03:59.828Z,30.73
2022-08-07T17:07:04.368Z,31.07
2022-08-07T17:10:07.195Z,30.06
2022-08-07T17:12:44.366Z,30.25
2022-08-07T17:15:15.601Z,29.92
2022-08-07T17:17:48.167Z,29.42
2022-08-07T17:20:41.753Z,29.46
2022-08-07T17:23:32.630Z,29.83
2022-08-07T17:26:30.043Z,28.99
2022-08-07T17:28:58.450Z,29.97
2022-08-07T17:32:03.459Z,30.46
2022-08-07T17:35:33.114Z,29.32
2022-08-07T17:38:09.687Z,28.99
2022-08-07T17:41:12.371Z,28.71
2022-08-07T17:44:02.286Z,29.04
2022-08-07T17:46:47.192Z,29.54
2022-08-07T17:49:44.749Z,29.48
2022-08-07T17:52:31.089Z,29.01
2022-08-07T17:55:13.716Z,27.97
2022-08-07T17:57:59.314Z,28.04
2022-08-07T18:00:34.435Z,28.57
2022-08-07T18:04:03.992Z,28.23
2022-08-07T18:06:38.162Z,27.95
2022-08-07T18:09:06.493Z,26.86
2022-08-07T18:12:07.333Z,25.51
2022-08-07T18:14:46.236Z,22.21
2022-08-07T18:18:45.046Z,20.46
2022-08-07T18:21:12.641Z,20.00
2022-08-07T18:23:57.154Z,19.61
2022-08-07T18:26:51.498Z,19.28
2022-08-07T18:30:08.294Z,18.93
2022-08-07T18:32:46.461Z,18.65
2022-08-07T18:35:57.295Z,18.42
2022-08-07T18:39:00.874Z,18.34
2022-08-07T18:42:07.219Z,18.06
2022-08-07T18:48:00.749Z,17.79
2022-08-07T18:50:50.550Z,17.65
2022-08-07T18:53:45.198Z,17.53
2022-08-07T18:57:23.556Z,17.36
2022-08-07T19:03:37.470Z,16.97
2022-08-07T19:06:33.864Z,16.82
2022-08-07T19:09:55.426Z,16.77
2022-08-07T19:12:15.597Z,16.54
2022-08-07T19:15:01.927Z,16.56
2022-08-07T19:18:17.217Z,16.37
2022-08-07T19:24:01.359Z,16.10
2022-08-07T19:26:53.690Z,16.01
2022-08-07T19:30:56.672Z,15.93
2022-08-07T19:32:26.023Z,15.87
2022-08-07T19:35:01.248Z,15.85
2022-08-07T19:37:57.133Z,15.74
2022-08-07T19:40:30.994Z,15.71
2022-08-07T19:43:01.030Z,15.74
2022-08-07T19:46:01.241Z,15.62
2022-08-07T19:48:42.768Z,15.55
2022-08-07T19:51:19.276Z,15.45
2022-08-07T19:54:31.667Z,15.43
2022-08-07T19:57:52.207Z,15.48
2022-08-07T19:59:41.451Z,15.33
2022-08-07T20:02:15.288Z,15.27
2022-08-07T20:04:48.901Z,15.27
2022-08-07T20:07:23.657Z,15.27
2022-08-07T20:10:36.108Z,15.20
2022-08-07T20:12:45.524Z,15.17
2022-08-07T20:15:22.255Z,15.16
2022-08-07T20:18:01.264Z,15.08
2022-08-07T20:20:31.467Z,15.04
2022-08-07T20:23:02.089Z,15.01
2022-08-07T20:25:52.932Z,14.99
2022-08-07T20:28:20.640Z,14.93
2022-08-07T20:30:58.221Z,14.87
2022-08-07T20:33:37.674Z,14.83
2022-08-07T20:36:08.858Z,14.80
2022-08-07T20:38:53.335Z,14.74
2022-08-07T20:41:27.446Z,14.74
2022-08-07T20:43:57.467Z,14.72
2022-08-07T20:46:33.480Z,14.74
2022-08-07T20:50:00.200Z,14.65
2022-08-07T20:51:50.811Z,14.56
2022-08-07T20:54:29.845Z,14.58
2022-08-07T20:57:03.631Z,14.54
2022-08-07T21:00:08.178Z,14.45
2022-08-07T21:02:55.225Z,14.39
2022-08-07T21:05:42.968Z,14.32
2022-08-07T21:08:16.465Z,14.35
2022-08-07T21:10:49.395Z,14.35
2022-08-07T21:13:57.190Z,14.34
2022-08-07T21:16:15.841Z,14.29
2022-08-07T21:18:46.178Z,14.28
2022-08-07T21:21:21.281Z,14.26
2022-08-07T21:24:05.772Z,14.25
2022-08-07T21:27:01.623Z,14.20
2022-08-07T21:30:05.987Z,14.14
2022-08-07T21:32:49.433Z,14.13
2022-08-07T21:36:04.291Z,14.09
2022-08-07T21:38:46.576Z,14.09
2022-08-07T21:41:37.843Z,14.03
2022-08-07T21:44:43.296Z,14.00
2022-08-07T21:47:27.544Z,14.00
2022-08-07T21:50:05.042Z,14.00
2022-08-07T21:52:54.644Z,13.99
2022-08-07T21:55:28.328Z,13.94
2022-08-07T21:58:32.483Z,13.92
2022-08-07T22:01:04.771Z,13.89
2022-08-07T22:03:42.610Z,13.84
2022-08-07T22:06:30.323Z,13.82
2022-08-07T22:09:10.261Z,13.79
2022-08-07T22:12:05.792Z,13.75
2022-08-07T22:14:38.959Z,13.74
2022-08-07T22:17:35.766Z,13.70
2022-08-07T22:20:23.480Z,13.64
2022-08-07T22:22:57.283Z,13.76
2022-08-07T22:26:01.557Z,13.73
2022-08-07T22:28:48.272Z,13.63
2022-08-07T22:31:56.213Z,13.59
2022-08-07T22:34:36.013Z,13.58
2022-08-07T22:37:16.761Z,13.56
2022-08-07T22:39:52.976Z,13.49
2022-08-07T22:42:25.816Z,13.44
2022-08-07T22:45:02.227Z,13.47
2022-08-07T22:47:52.117Z,13.46
2022-08-07T22:50:34.029Z,13.45
2022-08-07T22:54:07.501Z,13.43
2022-08-07T22:56:33.798Z,13.44
2022-08-07T22:59:35.252Z,13.33
2022-08-07T23:02:13.588Z,13.27
2022-08-07T23:04:58.006Z,13.24
2022-08-07T23:08:22.384Z,13.22
2022-08-07T23:11:18.020Z,13.19
2022-08-07T23:14:16.207Z,13.09
2022-08-07T23:17:20.232Z,13.01
2022-08-07T23:20:51.202Z,12.97
2022-08-07T23:24:05.290Z,12.96
2022-08-07T23:26:39.752Z,12.97
2022-08-07T23:29:43.817Z,12.94
2022-08-07T23:34:33.888Z,12.89
2022-08-07T23:36:04.186Z,12.85
2022-08-07T23:38:43.225Z,12.83
2022-08-07T23:42:04.152Z,12.83
2022-08-07T23:44:43.693Z,12.79
2022-08-07T23:47:22.767Z,12.80
2022-08-07T23:50:03.940Z,12.87
2022-08-07T23:53:05.740Z,12.79
2022-08-07T23:55:53.168Z,12.79
2022-08-07T23:58:43.033Z,12.83
